sensor_id;sensor_type;location;lat;lon;timestamp;temperature;humidity
8537;DHT22;4306;50.210;10.628;2022-08-11T00:01:09;16.50;71.90
8537;DHT22;4306;50.210;10.628;2022-08-11T00:03:42;16.50;71.80
8537;DHT22;4306;50.210;10.628;2022-08-11T00:06:10;16.50;72.20
8537;DHT22;4306;50.210;10.628;2022-08-11T00:08:39;16.50;72.20
8537;DHT22;4306;50.210;10.628;2022-08-11T00:11:08;16.50;72.40
8537;DHT22;4306;50.210;10.628;2022-08-11T00:13:39;16.40;72.30
8537;DHT22;4306;50.210;10.628;2022-08-11T00:16:12;16.40;72.10
8537;DHT22;4306;50.210;10.628;2022-08-11T00:18:41;16.40;72.50
8537;DHT22;4306;50.210;10.628;2022-08-11T00:21:09;16.40;72.40
8537;DHT22;4306;50.210;10.628;2022-08-11T00:23:41;16.30;72.30
8537;DHT22;4306;50.210;10.628;2022-08-11T00:26:09;16.30;73.50
8537;DHT22;4306;50.210;10.628;2022-08-11T00:28:40;16.20;73.70
8537;DHT22;4306;50.210;10.628;2022-08-11T00:31:10;16.20;73.60
8537;DHT22;4306;50.210;10.628;2022-08-11T00:33:45;16.10;73.90
8537;DHT22;4306;50.210;10.628;2022-08-11T00:36:14;16.10;73.50
8537;DHT22;4306;50.210;10.628;2022-08-11T00:38:44;16.10;73.60
8537;DHT22;4306;50.210;10.628;2022-08-11T00:41:27;16.10;73.30
8537;DHT22;4306;50.210;10.628;2022-08-11T00:44:21;16.10;73.00
8537;DHT22;4306;50.210;10.628;2022-08-11T00:47:06;16.10;73.70
8537;DHT22;4306;50.210;10.628;2022-08-11T00:49:44;16.10;72.70
8537;DHT22;4306;50.210;10.628;2022-08-11T00:52:23;16.00;73.60
8537;DHT22;4306;50.210;10.628;2022-08-11T01:01:23;15.70;75.40
8537;DHT22;4306;50.210;10.628;2022-08-11T01:04:26;15.60;74.80
8537;DHT22;4306;50.210;10.628;2022-08-11T01:10:30;15.70;74.20
8537;DHT22;4306;50.210;10.628;2022-08-11T01:13:15;15.70;74.40
8537;DHT22;4306;50.210;10.628;2022-08-11T01:16:10;15.70;74.90
8537;DHT22;4306;50.210;10.628;2022-08-11T01:19:20;15.70;74.10
8537;DHT22;4306;50.210;10.628;2022-08-11T01:22:27;15.70;74.10
8537;DHT22;4306;50.210;10.628;2022-08-11T01:28:56;15.50;74.80
8537;DHT22;4306;50.210;10.628;2022-08-11T01:38:09;15.40;76.00
8537;DHT22;4306;50.210;10.628;2022-08-11T01:40:54;15.20;76.50
8537;DHT22;4306;50.210;10.628;2022-08-11T01:47:05;15.30;75.70
8537;DHT22;4306;50.210;10.628;2022-08-11T01:50:06;15.30;75.90
8537;DHT22;4306;50.210;10.628;2022-08-11T01:52:41;15.20;77.90
8537;DHT22;4306;50.210;10.628;2022-08-11T01:55:14;15.10;77.40
8537;DHT22;4306;50.210;10.628;2022-08-11T01:57:49;15.10;77.00
8537;DHT22;4306;50.210;10.628;2022-08-11T02:00:20;15.10;77.40
8537;DHT22;4306;50.210;10.628;2022-08-11T02:02:52;15.10;77.20
8537;DHT22;4306;50.210;10.628;2022-08-11T02:05:38;15.10;76.90
8537;DHT22;4306;50.210;10.628;2022-08-11T02:08:13;15.00;77.00
8537;DHT22;4306;50.210;10.628;2022-08-11T02:10:47;15.00;76.50
8537;DHT22;4306;50.210;10.628;2022-08-11T02:13:44;15.00;76.80
8537;DHT22;4306;50.210;10.628;2022-08-11T02:16:35;15.00;77.00
8537;DHT22;4306;50.210;10.628;2022-08-11T02:19:11;14.90;77.90
8537;DHT22;4306;50.210;10.628;2022-08-11T02:22:05;14.70;78.50
8537;DHT22;4306;50.210;10.628;2022-08-11T02:24:54;14.60;79.60
8537;DHT22;4306;50.210;10.628;2022-08-11T02:27:26;14.60;78.30
8537;DHT22;4306;50.210;10.628;2022-08-11T02:30:00;14.70;78.70
8537;DHT22;4306;50.210;10.628;2022-08-11T02:32:35;14.50;79.80
8537;DHT22;4306;50.210;10.628;2022-08-11T02:35:27;14.60;78.80
8537;DHT22;4306;50.210;10.628;2022-08-11T02:38:07;14.50;79.90
8537;DHT22;4306;50.210;10.628;2022-08-11T02:40:44;14.50;79.80
8537;DHT22;4306;50.210;10.628;2022-08-11T02:43:22;14.50;79.00
8537;DHT22;4306;50.210;10.628;2022-08-11T02:45:59;14.50;79.20
8537;DHT22;4306;50.210;10.628;2022-08-11T02:48:45;14.50;79.00
8537;DHT22;4306;50.210;10.628;2022-08-11T02:51:38;14.50;78.40
8537;DHT22;4306;50.210;10.628;2022-08-11T02:54:14;14.50;79.60
8537;DHT22;4306;50.210;10.628;2022-08-11T02:56:49;14.60;78.50
8537;DHT22;4306;50.210;10.628;2022-08-11T02:59:32;14.60;78.50
8537;DHT22;4306;50.210;10.628;2022-08-11T03:02:32;14.60;79.50
8537;DHT22;4306;50.210;10.628;2022-08-11T03:05:11;14.60;79.20
8537;DHT22;4306;50.210;10.628;2022-08-11T03:08:02;14.50;80.40
8537;DHT22;4306;50.210;10.628;2022-08-11T03:10:40;14.40;79.80
8537;DHT22;4306;50.210;10.628;2022-08-11T03:13:15;14.40;80.30
8537;DHT22;4306;50.210;10.628;2022-08-11T03:16:18;14.40;79.50
8537;DHT22;4306;50.210;10.628;2022-08-11T03:19:13;14.40;80.00
8537;DHT22;4306;50.210;10.628;2022-08-11T03:21:45;14.30;80.90
8537;DHT22;4306;50.210;10.628;2022-08-11T03:24:17;14.30;79.60
8537;DHT22;4306;50.210;10.628;2022-08-11T03:26:55;14.30;79.60
8537;DHT22;4306;50.210;10.628;2022-08-11T03:29:30;14.30;80.20
8537;DHT22;4306;50.210;10.628;2022-08-11T03:32:03;14.20;80.00
8537;DHT22;4306;50.210;10.628;2022-08-11T03:34:32;14.20;80.10
8537;DHT22;4306;50.210;10.628;2022-08-11T03:37:23;14.20;81.60
8537;DHT22;4306;50.210;10.628;2022-08-11T03:40:30;14.10;81.30
8537;DHT22;4306;50.210;10.628;2022-08-11T03:43:27;14.00;81.00
8537;DHT22;4306;50.210;10.628;2022-08-11T03:46:05;14.00;81.20
8537;DHT22;4306;50.210;10.628;2022-08-11T03:48:42;13.90;83.40
8537;DHT22;4306;50.210;10.628;2022-08-11T03:51:18;13.90;82.60
8537;DHT22;4306;50.210;10.628;2022-08-11T03:54:13;13.70;83.70
8537;DHT22;4306;50.210;10.628;2022-08-11T04:00:21;13.80;82.50
8537;DHT22;4306;50.210;10.628;2022-08-11T04:12:54;13.60;84.30
8537;DHT22;4306;50.210;10.628;2022-08-11T04:15:44;13.60;85.00
8537;DHT22;4306;50.210;10.628;2022-08-11T04:22:07;13.70;83.30
8537;DHT22;4306;50.210;10.628;2022-08-11T04:25:24;13.80;83.00
8537;DHT22;4306;50.210;10.628;2022-08-11T04:31:01;13.70;84.10
8537;DHT22;4306;50.210;10.628;2022-08-11T04:33:58;13.70;83.90
8537;DHT22;4306;50.210;10.628;2022-08-11T04:36:46;13.70;83.30
8537;DHT22;4306;50.210;10.628;2022-08-11T04:39:46;13.70;83.40
8537;DHT22;4306;50.210;10.628;2022-08-11T04:49:02;13.80;82.50
8537;DHT22;4306;50.210;10.628;2022-08-11T04:52:02;13.80;83.70
8537;DHT22;4306;50.210;10.628;2022-08-11T04:55:01;13.80;84.40
8537;DHT22;4306;50.210;10.628;2022-08-11T04:57:57;13.90;83.70
8537;DHT22;4306;50.210;10.628;2022-08-11T05:00:52;13.90;83.80
8537;DHT22;4306;50.210;10.628;2022-08-11T05:03:49;14.00;83.60
8537;DHT22;4306;50.210;10.628;2022-08-11T05:06:56;14.00;84.40
8537;DHT22;4306;50.210;10.628;2022-08-11T05:09:44;14.00;84.20
8537;DHT22;4306;50.210;10.628;2022-08-11T05:12:24;14.10;83.60
8537;DHT22;4306;50.210;10.628;2022-08-11T05:14:56;14.10;84.00
8537;DHT22;4306;50.210;10.628;2022-08-11T05:17:44;14.10;84.40
8537;DHT22;4306;50.210;10.628;2022-08-11T05:20:29;14.20;84.70
8537;DHT22;4306;50.210;10.628;2022-08-11T05:23:17;14.20;84.30
8537;DHT22;4306;50.210;10.628;2022-08-11T05:26:03;14.30;84.20
8537;DHT22;4306;50.210;10.628;2022-08-11T05:28:54;14.30;83.50
8537;DHT22;4306;50.210;10.628;2022-08-11T05:31:42;14.40;84.40
8537;DHT22;4306;50.210;10.628;2022-08-11T05:34:41;14.50;83.50
8537;DHT22;4306;50.210;10.628;2022-08-11T05:37:22;14.60;83.70
8537;DHT22;4306;50.210;10.628;2022-08-11T05:39:55;14.60;84.20
8537;DHT22;4306;50.210;10.628;2022-08-11T05:42:43;14.70;84.50
8537;DHT22;4306;50.210;10.628;2022-08-11T05:45:33;14.80;83.70
8537;DHT22;4306;50.210;10.628;2022-08-11T05:48:18;14.80;83.60
8537;DHT22;4306;50.210;10.628;2022-08-11T05:51:03;14.90;85.10
8537;DHT22;4306;50.210;10.628;2022-08-11T05:53:51;15.00;85.70
8537;DHT22;4306;50.210;10.628;2022-08-11T05:56:43;15.20;85.50
8537;DHT22;4306;50.210;10.628;2022-08-11T05:59:16;15.30;85.50
8537;DHT22;4306;50.210;10.628;2022-08-11T06:01:45;15.40;86.40
8537;DHT22;4306;50.210;10.628;2022-08-11T06:04:16;15.50;85.50
8537;DHT22;4306;50.210;10.628;2022-08-11T06:06:54;15.70;84.70
8537;DHT22;4306;50.210;10.628;2022-08-11T06:09:24;15.80;84.20
8537;DHT22;4306;50.210;10.628;2022-08-11T06:11:56;15.90;83.60
8537;DHT22;4306;50.210;10.628;2022-08-11T06:14:24;16.20;83.10
8537;DHT22;4306;50.210;10.628;2022-08-11T06:16:55;16.30;82.50
8537;DHT22;4306;50.210;10.628;2022-08-11T06:19:31;16.50;82.10
8537;DHT22;4306;50.210;10.628;2022-08-11T06:22:00;16.70;81.30
8537;DHT22;4306;50.210;10.628;2022-08-11T06:24:28;16.90;80.20
8537;DHT22;4306;50.210;10.628;2022-08-11T06:26:58;17.00;80.20
8537;DHT22;4306;50.210;10.628;2022-08-11T06:29:27;17.20;79.80
8537;DHT22;4306;50.210;10.628;2022-08-11T06:31:56;17.30;79.20
8537;DHT22;4306;50.210;10.628;2022-08-11T06:34:34;17.40;79.00
8537;DHT22;4306;50.210;10.628;2022-08-11T06:37:15;17.60;78.20
8537;DHT22;4306;50.210;10.628;2022-08-11T06:39:49;17.70;77.90
8537;DHT22;4306;50.210;10.628;2022-08-11T06:42:31;17.80;77.70
8537;DHT22;4306;50.210;10.628;2022-08-11T06:45:03;18.00;77.20
8537;DHT22;4306;50.210;10.628;2022-08-11T06:47:33;18.00;77.20
8537;DHT22;4306;50.210;10.628;2022-08-11T06:50:01;18.10;77.00
8537;DHT22;4306;50.210;10.628;2022-08-11T06:52:46;18.30;76.60
8537;DHT22;4306;50.210;10.628;2022-08-11T06:55:21;18.40;76.60
8537;DHT22;4306;50.210;10.628;2022-08-11T06:58:15;18.50;76.70
8537;DHT22;4306;50.210;10.628;2022-08-11T07:01:03;18.70;76.20
8537;DHT22;4306;50.210;10.628;2022-08-11T07:03:37;18.80;76.00
8537;DHT22;4306;50.210;10.628;2022-08-11T07:06:22;19.10;74.70
8537;DHT22;4306;50.210;10.628;2022-08-11T07:09:13;19.20;74.60
8537;DHT22;4306;50.210;10.628;2022-08-11T07:12:19;19.40;74.30
8537;DHT22;4306;50.210;10.628;2022-08-11T07:15:11;19.50;74.20
8537;DHT22;4306;50.210;10.628;2022-08-11T07:18:02;19.60;73.90
8537;DHT22;4306;50.210;10.628;2022-08-11T07:20:48;19.70;74.00
8537;DHT22;4306;50.210;10.628;2022-08-11T07:23:36;20.00;72.50
8537;DHT22;4306;50.210;10.628;2022-08-11T07:26:23;20.10;73.00
8537;DHT22;4306;50.210;10.628;2022-08-11T07:29:10;20.20;72.50
8537;DHT22;4306;50.210;10.628;2022-08-11T07:31:44;20.30;70.90
8537;DHT22;4306;50.210;10.628;2022-08-11T07:34:19;20.60;71.80
8537;DHT22;4306;50.210;10.628;2022-08-11T07:36:50;20.70;71.60
8537;DHT22;4306;50.210;10.628;2022-08-11T07:39:20;21.00;70.30
8537;DHT22;4306;50.210;10.628;2022-08-11T07:41:49;21.10;70.10
8537;DHT22;4306;50.210;10.628;2022-08-11T07:44:17;21.30;68.80
8537;DHT22;4306;50.210;10.628;2022-08-11T07:46:47;21.40;69.10
8537;DHT22;4306;50.210;10.628;2022-08-11T07:49:34;21.40;69.00
8537;DHT22;4306;50.210;10.628;2022-08-11T07:52:20;21.50;69.30
8537;DHT22;4306;50.210;10.628;2022-08-11T07:54:55;21.60;69.10
8537;DHT22;4306;50.210;10.628;2022-08-11T07:57:24;21.80;68.20
8537;DHT22;4306;50.210;10.628;2022-08-11T08:00:10;21.80;68.30
8537;DHT22;4306;50.210;10.628;2022-08-11T08:02:58;21.90;67.40
8537;DHT22;4306;50.210;10.628;2022-08-11T08:05:44;22.10;67.60
8537;DHT22;4306;50.210;10.628;2022-08-11T08:08:29;22.10;67.90
8537;DHT22;4306;50.210;10.628;2022-08-11T08:11:14;22.20;67.50
8537;DHT22;4306;50.210;10.628;2022-08-11T08:13:58;22.50;65.40
8537;DHT22;4306;50.210;10.628;2022-08-11T08:16:43;22.70;64.70
8537;DHT22;4306;50.210;10.628;2022-08-11T08:19:30;22.80;65.20
8537;DHT22;4306;50.210;10.628;2022-08-11T08:21:58;22.90;64.40
8537;DHT22;4306;50.210;10.628;2022-08-11T08:24:27;23.00;63.80
8537;DHT22;4306;50.210;10.628;2022-08-11T08:26:55;23.10;64.20
8537;DHT22;4306;50.210;10.628;2022-08-11T08:29:27;23.10;64.40
8537;DHT22;4306;50.210;10.628;2022-08-11T08:32:13;23.20;64.20
8537;DHT22;4306;50.210;10.628;2022-08-11T08:34:43;23.30;62.80
8537;DHT22;4306;50.210;10.628;2022-08-11T08:37:11;23.40;61.20
8537;DHT22;4306;50.210;10.628;2022-08-11T08:39:39;23.50;61.10
8537;DHT22;4306;50.210;10.628;2022-08-11T08:42:09;23.60;60.30
8537;DHT22;4306;50.210;10.628;2022-08-11T08:44:40;23.70;60.30
8537;DHT22;4306;50.210;10.628;2022-08-11T08:47:12;23.80;60.50
8537;DHT22;4306;50.210;10.628;2022-08-11T08:49:45;23.90;60.60
8537;DHT22;4306;50.210;10.628;2022-08-11T08:52:19;24.00;59.50
8537;DHT22;4306;50.210;10.628;2022-08-11T08:54:50;24.10;60.00
8537;DHT22;4306;50.210;10.628;2022-08-11T08:57:21;24.10;58.80
8537;DHT22;4306;50.210;10.628;2022-08-11T08:59:49;24.20;58.40
8537;DHT22;4306;50.210;10.628;2022-08-11T09:02:18;24.40;56.80
8537;DHT22;4306;50.210;10.628;2022-08-11T09:04:47;24.40;56.80
8537;DHT22;4306;50.210;10.628;2022-08-11T09:07:17;24.40;57.80
8537;DHT22;4306;50.210;10.628;2022-08-11T09:09:46;24.60;56.90
8537;DHT22;4306;50.210;10.628;2022-08-11T09:12:14;24.60;57.00
8537;DHT22;4306;50.210;10.628;2022-08-11T09:14:46;24.80;57.00
8537;DHT22;4306;50.210;10.628;2022-08-11T09:17:32;24.80;56.00
8537;DHT22;4306;50.210;10.628;2022-08-11T09:20:03;24.90;55.90
8537;DHT22;4306;50.210;10.628;2022-08-11T09:22:33;24.90;55.30
8537;DHT22;4306;50.210;10.628;2022-08-11T09:25:19;25.00;55.50
8537;DHT22;4306;50.210;10.628;2022-08-11T09:28:05;25.10;56.60
8537;DHT22;4306;50.210;10.628;2022-08-11T09:30:36;25.20;54.10
8537;DHT22;4306;50.210;10.628;2022-08-11T09:33:04;25.30;53.10
8537;DHT22;4306;50.210;10.628;2022-08-11T09:35:34;25.30;52.60
8537;DHT22;4306;50.210;10.628;2022-08-11T09:38:04;25.70;52.20
8537;DHT22;4306;50.210;10.628;2022-08-11T09:40:50;25.60;52.60
8537;DHT22;4306;50.210;10.628;2022-08-11T09:43:18;25.70;53.50
8537;DHT22;4306;50.210;10.628;2022-08-11T09:46:03;25.90;52.80
8537;DHT22;4306;50.210;10.628;2022-08-11T09:48:34;25.90;53.00
8537;DHT22;4306;50.210;10.628;2022-08-11T09:51:05;25.90;52.60
8537;DHT22;4306;50.210;10.628;2022-08-11T09:53:35;26.00;52.20
8537;DHT22;4306;50.210;10.628;2022-08-11T09:56:04;26.00;52.00
8537;DHT22;4306;50.210;10.628;2022-08-11T09:58:51;26.10;50.80
8537;DHT22;4306;50.210;10.628;2022-08-11T10:01:21;26.10;51.10
8537;DHT22;4306;50.210;10.628;2022-08-11T10:04:00;26.20;51.20
8537;DHT22;4306;50.210;10.628;2022-08-11T10:06:31;26.10;50.70
8537;DHT22;4306;50.210;10.628;2022-08-11T10:09:19;26.20;50.80
8537;DHT22;4306;50.210;10.628;2022-08-11T10:11:47;26.30;51.50
8537;DHT22;4306;50.210;10.628;2022-08-11T10:14:15;26.50;51.10
8537;DHT22;4306;50.210;10.628;2022-08-11T10:17:03;26.50;50.80
8537;DHT22;4306;50.210;10.628;2022-08-11T10:19:32;26.50;49.70
8537;DHT22;4306;50.210;10.628;2022-08-11T10:22:03;26.50;50.10
8537;DHT22;4306;50.210;10.628;2022-08-11T10:25:07;26.60;49.70
8537;DHT22;4306;50.210;10.628;2022-08-11T10:30:37;26.80;48.40
8537;DHT22;4306;50.210;10.628;2022-08-11T10:33:21;26.90;48.60
8537;DHT22;4306;50.210;10.628;2022-08-11T10:36:07;26.80;47.70
8537;DHT22;4306;50.210;10.628;2022-08-11T10:38:36;26.80;47.20
8537;DHT22;4306;50.210;10.628;2022-08-11T10:41:04;26.90;48.10
8537;DHT22;4306;50.210;10.628;2022-08-11T10:43:50;27.10;48.70
8537;DHT22;4306;50.210;10.628;2022-08-11T10:46:19;27.20;47.70
8537;DHT22;4306;50.210;10.628;2022-08-11T10:49:04;27.20;47.80
8537;DHT22;4306;50.210;10.628;2022-08-11T10:51:32;27.20;47.90
8537;DHT22;4306;50.210;10.628;2022-08-11T10:54:19;27.30;47.30
8537;DHT22;4306;50.210;10.628;2022-08-11T10:57:04;27.20;47.50
8537;DHT22;4306;50.210;10.628;2022-08-11T10:59:49;27.30;47.60
8537;DHT22;4306;50.210;10.628;2022-08-11T11:02:17;27.30;48.10
8537;DHT22;4306;50.210;10.628;2022-08-11T11:04:59;27.40;47.50
8537;DHT22;4306;50.210;10.628;2022-08-11T11:07:36;27.60;47.40
8537;DHT22;4306;50.210;10.628;2022-08-11T11:10:06;27.70;46.30
8537;DHT22;4306;50.210;10.628;2022-08-11T11:12:38;27.70;46.90
8537;DHT22;4306;50.210;10.628;2022-08-11T11:15:26;27.70;46.60
8537;DHT22;4306;50.210;10.628;2022-08-11T11:18:18;27.80;47.10
8537;DHT22;4306;50.210;10.628;2022-08-11T11:20:52;27.80;47.30
8537;DHT22;4306;50.210;10.628;2022-08-11T11:23:24;27.90;46.90
8537;DHT22;4306;50.210;10.628;2022-08-11T11:26:07;27.90;46.40
8537;DHT22;4306;50.210;10.628;2022-08-11T11:29:19;27.90;46.40
8537;DHT22;4306;50.210;10.628;2022-08-11T11:32:13;27.90;47.20
8537;DHT22;4306;50.210;10.628;2022-08-11T11:34:56;28.00;46.40
8537;DHT22;4306;50.210;10.628;2022-08-11T11:37:29;28.10;46.10
8537;DHT22;4306;50.210;10.628;2022-08-11T11:39:59;28.20;45.60
8537;DHT22;4306;50.210;10.628;2022-08-11T11:42:28;28.30;45.50
8537;DHT22;4306;50.210;10.628;2022-08-11T11:44:56;28.30;43.80
8537;DHT22;4306;50.210;10.628;2022-08-11T11:47:24;28.30;44.40
8537;DHT22;4306;50.210;10.628;2022-08-11T11:49:52;28.50;44.60
8537;DHT22;4306;50.210;10.628;2022-08-11T11:52:21;28.60;44.80
8537;DHT22;4306;50.210;10.628;2022-08-11T11:54:51;28.60;43.50
8537;DHT22;4306;50.210;10.628;2022-08-11T11:57:21;28.70;44.40
8537;DHT22;4306;50.210;10.628;2022-08-11T12:00:09;28.80;43.90
8537;DHT22;4306;50.210;10.628;2022-08-11T12:02:54;28.90;43.20
8537;DHT22;4306;50.210;10.628;2022-08-11T12:05:23;28.80;42.60
8537;DHT22;4306;50.210;10.628;2022-08-11T12:07:51;28.80;43.60
8537;DHT22;4306;50.210;10.628;2022-08-11T12:10:39;29.00;42.90
8537;DHT22;4306;50.210;10.628;2022-08-11T12:13:09;29.00;44.30
8537;DHT22;4306;50.210;10.628;2022-08-11T12:15:55;29.00;43.20
8537;DHT22;4306;50.210;10.628;2022-08-11T12:18:23;29.00;42.60
8537;DHT22;4306;50.210;10.628;2022-08-11T12:20:50;28.80;43.50
8537;DHT22;4306;50.210;10.628;2022-08-11T12:23:17;28.90;43.50
8537;DHT22;4306;50.210;10.628;2022-08-11T12:26:02;29.00;42.70
8537;DHT22;4306;50.210;10.628;2022-08-11T12:28:46;29.00;43.60
8537;DHT22;4306;50.210;10.628;2022-08-11T12:31:15;29.20;43.20
8537;DHT22;4306;50.210;10.628;2022-08-11T12:33:42;29.20;43.60
8537;DHT22;4306;50.210;10.628;2022-08-11T12:36:11;29.30;42.60
8537;DHT22;4306;50.210;10.628;2022-08-11T12:38:42;29.60;43.30
8537;DHT22;4306;50.210;10.628;2022-08-11T12:41:10;29.40;43.80
8537;DHT22;4306;50.210;10.628;2022-08-11T12:43:55;29.40;42.60
8537;DHT22;4306;50.210;10.628;2022-08-11T12:46:45;29.50;42.40
8537;DHT22;4306;50.210;10.628;2022-08-11T12:49:14;29.60;41.60
8537;DHT22;4306;50.210;10.628;2022-08-11T12:52:03;29.60;42.40
8537;DHT22;4306;50.210;10.628;2022-08-11T12:54:34;29.70;42.90
8537;DHT22;4306;50.210;10.628;2022-08-11T12:57:05;29.80;42.00
8537;DHT22;4306;50.210;10.628;2022-08-11T12:59:54;29.80;41.60
8537;DHT22;4306;50.210;10.628;2022-08-11T13:02:40;29.90;42.00
8537;DHT22;4306;50.210;10.628;2022-08-11T13:05:25;29.90;42.10
8537;DHT22;4306;50.210;10.628;2022-08-11T13:07:52;29.80;41.70
8537;DHT22;4306;50.210;10.628;2022-08-11T13:10:20;29.60;41.50
8537;DHT22;4306;50.210;10.628;2022-08-11T13:13:02;29.60;41.70
8537;DHT22;4306;50.210;10.628;2022-08-11T13:15:29;29.80;41.80
8537;DHT22;4306;50.210;10.628;2022-08-11T13:17:58;30.00;41.40
8537;DHT22;4306;50.210;10.628;2022-08-11T13:20:27;30.10;41.80
8537;DHT22;4306;50.210;10.628;2022-08-11T13:22:56;30.10;41.40
8537;DHT22;4306;50.210;10.628;2022-08-11T13:25:27;30.20;41.50
8537;DHT22;4306;50.210;10.628;2022-08-11T13:27:57;30.10;40.40
8537;DHT22;4306;50.210;10.628;2022-08-11T13:30:27;29.90;40.20
8537;DHT22;4306;50.210;10.628;2022-08-11T13:33:14;30.10;40.70
8537;DHT22;4306;50.210;10.628;2022-08-11T13:35:44;30.20;40.20
8537;DHT22;4306;50.210;10.628;2022-08-11T13:38:15;30.30;39.40
8537;DHT22;4306;50.210;10.628;2022-08-11T13:40:42;30.20;38.50
8537;DHT22;4306;50.210;10.628;2022-08-11T13:43:12;30.10;38.00
8537;DHT22;4306;50.210;10.628;2022-08-11T13:45:40;29.90;38.30
8537;DHT22;4306;50.210;10.628;2022-08-11T13:48:08;30.10;39.20
8537;DHT22;4306;50.210;10.628;2022-08-11T13:50:37;30.30;39.10
8537;DHT22;4306;50.210;10.628;2022-08-11T13:53:24;30.50;39.00
8537;DHT22;4306;50.210;10.628;2022-08-11T13:55:53;30.40;38.40
8537;DHT22;4306;50.210;10.628;2022-08-11T13:58:21;30.10;38.70
8537;DHT22;4306;50.210;10.628;2022-08-11T14:00:50;30.20;37.80
8537;DHT22;4306;50.210;10.628;2022-08-11T14:03:22;30.30;37.70
8537;DHT22;4306;50.210;10.628;2022-08-11T14:05:53;30.20;36.80
8537;DHT22;4306;50.210;10.628;2022-08-11T14:08:25;30.30;37.70
8537;DHT22;4306;50.210;10.628;2022-08-11T14:10:55;30.40;37.80
8537;DHT22;4306;50.210;10.628;2022-08-11T14:13:41;30.50;38.70
8537;DHT22;4306;50.210;10.628;2022-08-11T14:16:11;30.50;38.90
8537;DHT22;4306;50.210;10.628;2022-08-11T14:18:45;30.60;38.80
8537;DHT22;4306;50.210;10.628;2022-08-11T14:21:15;30.70;39.30
8537;DHT22;4306;50.210;10.628;2022-08-11T14:24:02;30.80;39.60
8537;DHT22;4306;50.210;10.628;2022-08-11T14:26:30;30.90;39.30
8537;DHT22;4306;50.210;10.628;2022-08-11T14:29:06;30.90;39.00
8537;DHT22;4306;50.210;10.628;2022-08-11T14:31:37;30.90;39.20
8537;DHT22;4306;50.210;10.628;2022-08-11T14:34:08;30.90;39.00
8537;DHT22;4306;50.210;10.628;2022-08-11T14:36:41;30.50;38.50
8537;DHT22;4306;50.210;10.628;2022-08-11T14:39:10;30.40;38.30
8537;DHT22;4306;50.210;10.628;2022-08-11T14:41:38;30.10;38.30
8537;DHT22;4306;50.210;10.628;2022-08-11T14:44:24;30.30;38.60
8537;DHT22;4306;50.210;10.628;2022-08-11T14:47:10;30.40;37.60
8537;DHT22;4306;50.210;10.628;2022-08-11T14:49:40;30.30;37.00
8537;DHT22;4306;50.210;10.628;2022-08-11T14:52:11;30.20;38.20
8537;DHT22;4306;50.210;10.628;2022-08-11T14:54:42;30.40;37.10
8537;DHT22;4306;50.210;10.628;2022-08-11T14:57:26;30.60;37.90
8537;DHT22;4306;50.210;10.628;2022-08-11T14:59:56;30.70;37.00
8537;DHT22;4306;50.210;10.628;2022-08-11T15:02:23;30.90;37.50
8537;DHT22;4306;50.210;10.628;2022-08-11T15:05:08;30.90;37.10
8537;DHT22;4306;50.210;10.628;2022-08-11T15:07:36;31.00;37.30
8537;DHT22;4306;50.210;10.628;2022-08-11T15:10:06;31.00;37.50
8537;DHT22;4306;50.210;10.628;2022-08-11T15:12:36;31.00;36.60
8537;DHT22;4306;50.210;10.628;2022-08-11T15:15:06;31.00;37.60
8537;DHT22;4306;50.210;10.628;2022-08-11T15:17:53;30.90;36.70
8537;DHT22;4306;50.210;10.628;2022-08-11T15:20:21;30.70;37.40
8537;DHT22;4306;50.210;10.628;2022-08-11T15:23:08;30.80;37.30
8537;DHT22;4306;50.210;10.628;2022-08-11T15:25:55;30.70;37.20
8537;DHT22;4306;50.210;10.628;2022-08-11T15:28:23;30.80;37.10
8537;DHT22;4306;50.210;10.628;2022-08-11T15:31:10;30.80;37.50
8537;DHT22;4306;50.210;10.628;2022-08-11T15:34:01;30.80;36.70
8537;DHT22;4306;50.210;10.628;2022-08-11T15:37:05;30.60;37.10
8537;DHT22;4306;50.210;10.628;2022-08-11T15:39:56;30.80;37.00
8537;DHT22;4306;50.210;10.628;2022-08-11T15:42:46;30.60;37.30
8537;DHT22;4306;50.210;10.628;2022-08-11T15:45:33;30.70;37.50
8537;DHT22;4306;50.210;10.628;2022-08-11T15:48:34;30.60;37.10
8537;DHT22;4306;50.210;10.628;2022-08-11T15:51:05;30.70;37.70
8537;DHT22;4306;50.210;10.628;2022-08-11T15:53:39;30.60;37.90
8537;DHT22;4306;50.210;10.628;2022-08-11T15:56:09;30.50;37.80
8537;DHT22;4306;50.210;10.628;2022-08-11T15:58:41;30.50;37.50
8537;DHT22;4306;50.210;10.628;2022-08-11T16:01:36;30.50;37.50
8537;DHT22;4306;50.210;10.628;2022-08-11T16:04:25;30.50;37.60
8537;DHT22;4306;50.210;10.628;2022-08-11T16:06:55;30.30;37.20
8537;DHT22;4306;50.210;10.628;2022-08-11T16:09:27;30.30;37.50
8537;DHT22;4306;50.210;10.628;2022-08-11T16:12:05;30.10;37.60
8537;DHT22;4306;50.210;10.628;2022-08-11T16:14:36;30.10;38.10
8537;DHT22;4306;50.210;10.628;2022-08-11T16:17:24;30.00;37.90
8537;DHT22;4306;50.210;10.628;2022-08-11T16:19:53;29.80;37.80
8537;DHT22;4306;50.210;10.628;2022-08-11T16:22:26;29.80;38.30
8537;DHT22;4306;50.210;10.628;2022-08-11T16:25:00;29.70;38.20
8537;DHT22;4306;50.210;10.628;2022-08-11T16:27:31;29.80;39.60
8537;DHT22;4306;50.210;10.628;2022-08-11T16:30:01;29.70;38.20
8537;DHT22;4306;50.210;10.628;2022-08-11T16:32:30;29.70;38.80
8537;DHT22;4306;50.210;10.628;2022-08-11T16:35:00;29.70;39.10
8537;DHT22;4306;50.210;10.628;2022-08-11T16:37:46;29.70;39.50
8537;DHT22;4306;50.210;10.628;2022-08-11T16:40:32;29.70;39.30
8537;DHT22;4306;50.210;10.628;2022-08-11T16:43:04;29.80;39.40
8537;DHT22;4306;50.210;10.628;2022-08-11T16:45:49;29.80;39.60
8537;DHT22;4306;50.210;10.628;2022-08-11T16:48:35;29.80;40.00
8537;DHT22;4306;50.210;10.628;2022-08-11T16:51:03;29.70;39.80
8537;DHT22;4306;50.210;10.628;2022-08-11T16:53:30;29.50;39.80
8537;DHT22;4306;50.210;10.628;2022-08-11T16:56:00;29.40;39.80
8537;DHT22;4306;50.210;10.628;2022-08-11T16:58:31;29.40;39.70
8537;DHT22;4306;50.210;10.628;2022-08-11T17:01:20;29.50;40.30
8537;DHT22;4306;50.210;10.628;2022-08-11T17:03:52;29.50;40.20
8537;DHT22;4306;50.210;10.628;2022-08-11T17:06:44;29.30;40.30
8537;DHT22;4306;50.210;10.628;2022-08-11T17:09:31;29.10;40.60
8537;DHT22;4306;50.210;10.628;2022-08-11T17:12:20;29.00;40.80
8537;DHT22;4306;50.210;10.628;2022-08-11T17:15:10;28.90;40.50
8537;DHT22;4306;50.210;10.628;2022-08-11T17:17:53;28.80;41.50
8537;DHT22;4306;50.210;10.628;2022-08-11T17:20:21;28.80;41.30
8537;DHT22;4306;50.210;10.628;2022-08-11T17:22:50;28.70;41.20
8537;DHT22;4306;50.210;10.628;2022-08-11T17:25:35;28.60;41.20
8537;DHT22;4306;50.210;10.628;2022-08-11T17:28:04;28.60;41.80
8537;DHT22;4306;50.210;10.628;2022-08-11T17:30:34;28.60;41.90
8537;DHT22;4306;50.210;10.628;2022-08-11T17:33:18;28.60;41.80
8537;DHT22;4306;50.210;10.628;2022-08-11T17:36:06;28.50;41.50
8537;DHT22;4306;50.210;10.628;2022-08-11T17:38:35;28.20;41.50
8537;DHT22;4306;50.210;10.628;2022-08-11T17:41:02;28.10;42.00
8537;DHT22;4306;50.210;10.628;2022-08-11T17:43:47;28.30;42.30
8537;DHT22;4306;50.210;10.628;2022-08-11T17:46:34;28.20;41.90
8537;DHT22;4306;50.210;10.628;2022-08-11T17:49:19;28.00;42.20